Time;durP1;ratioP1;P1;durP2;ratioP2;P2;SDS_P1;SDS_P2;PMS_P1;PMS_P2;Temp;Humidity;BMP_temperature;BMP_pressure;BME280_temperature;BME280_humidity;BME280_pressure;Samples;Min_cycle;Max_cycle;Signal;HPM_P1;HPM_P2
2021/12/25 00:00:29;;;;;;;8.07;4.90;;;;;;;9.27;94.70;97500.38;5050767;28;20212;-59
2021/12/25 00:02:56;;;;;;;8.03;4.97;;;;;;;9.23;95.06;97499.09;5051485;28;20260;-59
2021/12/25 00:05:23;;;;;;;5.17;3.93;;;;;;;9.23;94.48;97504.31;5051507;28;20275;-59
2021/12/25 00:07:50;;;;;;;7.33;3.70;;;;;;;9.18;95.77;97497.97;5051426;28;20265;-59
2021/12/25 00:10:18;;;;;;;14.50;6.53;;;;;;;9.10;96.93;97498.81;5050602;28;20217;-59
2021/12/25 00:12:45;;;;;;;12.50;6.83;;;;;;;9.05;97.05;97490.72;5051707;28;20608;-57
2021/12/25 00:15:11;;;;;;;15.10;6.73;;;;;;;8.99;98.12;97489.59;5051498;28;20235;-57
2021/12/25 00:17:38;;;;;;;11.33;6.20;;;;;;;8.95;98.18;97496.13;5051712;28;20474;-56
2021/12/25 00:20:06;;;;;;;9.33;5.80;;;;;;;8.91;99.14;97492.25;5050808;28;20182;-60
2021/12/25 00:22:33;;;;;;;9.53;5.17;;;;;;;8.86;99.65;97488.34;5052765;28;20237;-60
2021/12/25 00:25:00;;;;;;;8.50;5.23;;;;;;;8.82;100.00;97494.03;5054924;28;20538;-55
2021/12/25 00:27:46;;;;;;;10.30;5.27;;;;;;;8.79;100.00;97494.38;5054800;28;20211;-59
2021/12/25 00:30:24;;;;;;;7.70;5.10;;;;;;;8.78;100.00;97490.97;5053018;28;20710;-57
2021/12/25 00:32:58;;;;;;;3.80;2.20;;;;;;;8.77;100.00;97491.94;5053365;28;20222;-54
2021/12/25 00:35:25;;;;;;;2.73;1.83;;;;;;;8.87;100.00;97481.34;5054675;28;20635;-60
2021/12/25 00:37:52;;;;;;;3.17;1.80;;;;;;;8.88;100.00;97479.56;5054772;28;20270;-55
2021/12/25 00:40:20;;;;;;;3.40;1.80;;;;;;;8.92;100.00;97480.84;5053872;28;20569;-56
2021/12/25 00:42:48;;;;;;;5.23;2.10;;;;;;;8.95;100.00;97475.31;5053210;28;20609;-57
2021/12/25 00:45:15;;;;;;;3.80;1.87;;;;;;;8.97;100.00;97479.34;5054468;28;20613;-57
2021/12/25 00:47:42;;;;;;;3.20;2.07;;;;;;;9.05;100.00;97482.91;5053061;28;20212;-59
2021/12/25 00:50:10;;;;;;;3.30;2.10;;;;;;;9.04;100.00;97479.47;5054054;28;20272;-58
2021/12/25 00:52:37;;;;;;;4.07;2.77;;;;;;;8.99;100.00;97480.00;5053082;28;20191;-59
2021/12/25 00:55:07;;;;;;;6.00;3.30;;;;;;;9.02;100.00;97478.84;5054198;28;20286;-58
2021/12/25 00:57:35;;;;;;;6.47;4.00;;;;;;;9.09;100.00;97484.19;5054220;28;20184;-59
2021/12/25 01:00:09;;;;;;;6.60;4.03;;;;;;;9.05;100.00;97473.28;5053566;28;20187;-59
2021/12/25 01:02:39;;;;;;;6.83;3.83;;;;;;;9.03;100.00;97483.06;5054203;28;20183;-59
2021/12/25 01:05:08;;;;;;;4.60;3.17;;;;;;;9.04;100.00;97487.28;5052853;28;20188;-58
2021/12/25 01:07:35;;;;;;;5.47;3.30;;;;;;;9.05;100.00;97495.91;5054472;28;20274;-58
2021/12/25 01:10:03;;;;;;;4.80;2.80;;;;;;;9.04;100.00;97499.50;5052015;28;20191;-58
2021/12/25 01:12:40;;;;;;;5.10;2.43;;;;;;;9.04;100.00;97499.50;5052562;28;20680;-58
2021/12/25 01:15:11;;;;;;;5.53;2.30;;;;;;;9.01;100.00;97498.84;5052557;28;20566;-59
2021/12/25 01:23:52;;;;;;;2.87;1.80;;;;;;;8.89;100.00;97505.41;5047821;28;20271;-59
2021/12/25 01:29:26;;;;;;;3.07;1.80;;;;;;;8.84;100.00;97511.13;5052543;28;20193;-59
2021/12/25 01:32:16;;;;;;;2.47;1.33;;;;;;;8.81;100.00;97502.81;5051797;28;20216;-58
2021/12/25 01:38:20;;;;;;;3.37;1.40;;;;;;;8.71;100.00;97500.44;5052241;28;20653;-58
2021/12/25 01:41:16;;;;;;;1.30;0.93;;;;;;;8.70;100.00;97494.41;5052897;28;20303;-58
2021/12/25 01:49:50;;;;;;;3.07;0.80;;;;;;;8.67;100.00;97484.31;5052769;28;20201;-58
2021/12/25 01:52:19;;;;;;;1.37;0.50;;;;;;;8.60;100.00;97478.16;5051878;28;20236;-59
2021/12/25 01:54:46;;;;;;;1.27;0.60;;;;;;;8.58;100.00;97477.50;5052005;28;20215;-58
2021/12/25 01:57:13;;;;;;;0.70;0.60;;;;;;;8.54;100.00;97461.44;5053198;28;20554;-59
2021/12/25 01:59:39;;;;;;;0.90;0.60;;;;;;;8.57;100.00;97470.69;5052687;28;20266;-59
2021/12/25 02:02:08;;;;;;;1.07;0.60;;;;;;;8.53;100.00;97469.41;5051597;28;20226;-59
2021/12/25 02:04:34;;;;;;;2.97;0.67;;;;;;;8.51;100.00;97466.16;5052970;28;20189;-59
2021/12/25 02:07:02;;;;;;;1.20;0.57;;;;;;;8.49;100.00;97457.69;5051725;28;20682;-59
2021/12/25 02:09:28;;;;;;;1.77;0.40;;;;;;;8.50;100.00;97456.72;5052921;28;20211;-59
2021/12/25 02:11:55;;;;;;;1.43;0.40;;;;;;;8.49;100.00;97453.31;5050947;28;20228;-57
2021/12/25 02:14:22;;;;;;;0.80;0.50;;;;;;;8.46;100.00;97453.63;5051490;28;20211;-57
2021/12/25 02:16:55;;;;;;;1.37;0.40;;;;;;;8.46;100.00;97453.63;5051453;28;20205;-55
2021/12/25 02:19:37;;;;;;;0.73;0.70;;;;;;;8.44;100.00;97447.78;5051427;28;20674;-57
2021/12/25 02:22:09;;;;;;;0.40;0.30;;;;;;;8.41;100.00;97451.53;5051285;28;20217;-57
2021/12/25 02:24:37;;;;;;;6.27;1.87;;;;;;;8.41;100.00;97448.13;5051395;28;20262;-58
2021/12/25 02:27:05;;;;;;;2.17;0.97;;;;;;;8.43;100.00;97453.97;5051305;28;20601;-57
2021/12/25 02:29:33;;;;;;;0.90;0.47;;;;;;;8.40;100.00;97464.69;5050875;28;20190;-57
2021/12/25 02:32:01;;;;;;;2.40;0.80;;;;;;;8.45;100.00;97474.63;5051115;28;20585;-58
2021/12/25 02:34:30;;;;;;;2.67;1.50;;;;;;;8.47;100.00;97486.47;5051182;28;20220;-57
2021/12/25 02:36:57;;;;;;;3.03;1.30;;;;;;;8.39;100.00;97491.66;5051085;28;20221;-59
2021/12/25 02:39:25;;;;;;;3.50;1.30;;;;;;;8.38;100.00;97492.66;5051081;28;20706;-58
2021/12/25 02:41:53;;;;;;;1.70;0.90;;;;;;;8.33;100.00;97495.75;5051774;28;20544;-55
2021/12/25 02:44:20;;;;;;;1.77;0.80;;;;;;;8.29;100.00;97484.06;5050981;28;20192;-56
2021/12/25 02:46:53;;;;;;;2.03;0.80;;;;;;;8.28;100.00;97475.44;5050274;28;20191;-57
2021/12/25 02:49:20;;;;;;;2.87;0.80;;;;;;;8.28;100.00;97475.44;5050983;28;20663;-58
2021/12/25 02:51:48;;;;;;;1.90;0.50;;;;;;;8.32;100.00;97483.72;5050193;28;20214;-57
2021/12/25 02:54:17;;;;;;;1.30;1.00;;;;;;;8.37;100.00;97484.06;5052046;28;20196;-59
2021/12/25 02:56:45;;;;;;;1.07;0.90;;;;;;;8.43;100.00;97482.56;5052008;28;20187;-59
2021/12/25 02:59:15;;;;;;;1.40;0.93;;;;;;;8.39;100.00;97492.50;5050782;28;20649;-57
2021/12/25 03:01:42;;;;;;;1.40;1.10;;;;;;;8.32;100.00;97488.94;5051266;28;20620;-57
2021/12/25 03:04:09;;;;;;;1.70;1.27;;;;;;;8.31;100.00;97492.50;5050936;28;20314;-59
2021/12/25 03:06:37;;;;;;;2.97;1.27;;;;;;;8.32;100.00;97485.50;5050607;28;20281;-58
2021/12/25 03:09:05;;;;;;;2.23;1.40;;;;;;;8.27;100.00;97473.81;5051821;28;20526;-58
2021/12/25 03:11:33;;;;;;;1.70;1.13;;;;;;;8.22;100.00;97459.69;5049869;28;20712;-59
2021/12/25 03:14:12;;;;;;;1.53;1.00;;;;;;;8.22;100.00;97454.50;5050474;28;20216;-58
2021/12/25 03:16:40;;;;;;;2.97;1.07;;;;;;;8.13;100.00;97448.47;5051881;28;20658;-58
2021/12/25 03:19:13;;;;;;;1.60;1.10;;;;;;;8.09;100.00;97437.59;5050818;28;20218;-58
2021/12/25 03:21:40;;;;;;;5.03;1.00;;;;;;;8.09;100.00;97440.22;5049823;28;20212;-58
2021/12/25 03:24:07;;;;;;;2.00;1.30;;;;;;;8.10;100.00;97439.22;5051711;28;20265;-59
2021/12/25 03:26:34;;;;;;;3.33;1.80;;;;;;;8.10;100.00;97434.03;5050382;28;20612;-59
2021/12/25 03:29:04;;;;;;;3.30;2.50;;;;;;;8.15;100.00;97435.34;5050394;28;20200;-59
2021/12/25 03:31:32;;;;;;;2.67;1.70;;;;;;;8.17;100.00;97439.38;5049883;28;20259;-58
2021/12/25 03:33:59;;;;;;;3.63;2.57;;;;;;;8.14;100.00;97431.91;5050375;28;20734;-57
2021/12/25 03:36:26;;;;;;;3.23;2.03;;;;;;;8.16;100.00;97439.56;5051498;28;20207;-57
2021/12/25 03:38:54;;;;;;;6.77;2.50;;;;;;;8.15;100.00;97424.94;5050373;28;20198;-58
2021/12/25 03:41:21;;;;;;;5.60;3.60;;;;;;;8.21;100.00;97439.88;5049668;28;20216;-57
2021/12/25 03:43:48;;;;;;;6.93;3.77;;;;;;;8.27;100.00;97436.63;5050355;28;20193;-59
2021/12/25 03:46:17;;;;;;;7.93;4.50;;;;;;;8.28;100.00;97443.44;5050296;28;20191;-57
2021/12/25 03:59:47;;;;;;;8.87;4.87;;;;;;;8.60;100.00;97435.75;5053617;28;20661;-57
2021/12/25 04:02:20;;;;;;;7.50;4.73;;;;;;;8.63;100.00;97418.00;5054219;28;20604;-57
2021/12/25 04:04:49;;;;;;;8.67;4.60;;;;;;;8.64;100.00;97411.03;5054046;28;20216;-54
2021/12/25 04:07:36;;;;;;;8.43;4.53;;;;;;;8.65;100.00;97402.25;5054316;28;20188;-55
2021/12/25 04:10:04;;;;;;;6.07;4.70;;;;;;;8.68;100.00;97404.50;5053365;28;20196;-59
2021/12/25 04:12:31;;;;;;;7.57;4.53;;;;;;;8.69;100.00;97400.91;5053769;28;20196;-57
2021/12/25 04:14:58;;;;;;;7.73;5.37;;;;;;;8.68;100.00;97402.69;5053633;28;20756;-59
2021/12/25 04:17:27;;;;;;;7.47;4.83;;;;;;;8.69;100.00;97404.31;5053865;28;20565;-56
2021/12/25 04:19:53;;;;;;;9.20;4.90;;;;;;;8.69;100.00;97401.72;5053049;28;20195;-55
2021/12/25 04:22:27;;;;;;;7.30;4.67;;;;;;;8.69;100.00;97403.53;5053655;28;20197;-59
2021/12/25 04:24:54;;;;;;;7.37;4.00;;;;;;;8.74;100.00;97409.03;5053575;28;20190;-59
2021/12/25 04:27:22;;;;;;;8.27;5.23;;;;;;;8.79;100.00;97401.53;5053754;28;20196;-58
2021/12/25 04:29:54;;;;;;;7.13;4.77;;;;;;;8.82;100.00;97403.78;5053099;28;20196;-56
2021/12/25 04:33:18;;;;;;;7.90;4.60;;;;;;;8.82;100.00;97408.16;5054778;28;20216;-57
2021/12/25 05:03:42;;;;;;;8.57;4.53;;;;;;;9.04;100.00;97411.78;5052870;28;20656;-59
2021/12/25 05:06:25;;;;;;;6.63;4.50;;;;;;;8.97;100.00;97409.06;5053056;28;20184;-53
2021/12/25 05:08:55;;;;;;;8.10;4.80;;;;;;;8.96;100.00;97401.47;5051868;28;20222;-57
2021/12/25 05:11:23;;;;;;;7.67;5.10;;;;;;;8.99;100.00;97404.50;5052024;28;20228;-59
2021/12/25 05:13:50;;;;;;;10.50;4.80;;;;;;;8.96;100.00;97399.66;5052734;28;20257;-57
2021/12/25 05:16:22;;;;;;;10.97;4.93;;;;;;;9.03;99.12;97404.16;5052646;28;20192;-54
2021/12/25 05:18:51;;;;;;;9.23;5.37;;;;;;;8.99;100.00;97406.31;5052535;28;20256;-56
2021/12/25 05:21:18;;;;;;;8.30;4.93;;;;;;;9.00;100.00;97400.94;5052177;28;20724;-56
2021/12/25 05:23:47;;;;;;;9.50;5.27;;;;;;;8.96;100.00;97391.03;5052709;28;20192;-56
2021/12/25 05:26:15;;;;;;;9.90;5.27;;;;;;;8.88;100.00;97397.09;5052647;28;20592;-57
2021/12/25 05:28:45;;;;;;;10.17;5.17;;;;;;;8.85;100.00;97402.63;5052393;28;20219;-57
2021/12/25 05:31:16;;;;;;;9.40;5.43;;;;;;;8.84;100.00;97401.00;5051711;28;20243;-56
2021/12/25 05:34:12;;;;;;;10.40;5.13;;;;;;;8.84;100.00;97403.63;5033863;28;20201;-56
2021/12/25 05:36:48;;;;;;;9.33;5.40;;;;;;;8.84;100.00;97398.41;5052345;28;20191;-57
2021/12/25 05:39:50;;;;;;;10.63;5.03;;;;;;;8.84;100.00;97408.81;5033305;28;20235;-58
2021/12/25 05:42:20;;;;;;;7.50;4.47;;;;;;;8.81;100.00;97415.19;5052283;28;20584;-56
2021/12/25 05:44:48;;;;;;;7.53;4.77;;;;;;;8.86;100.00;97428.50;5052295;28;20195;-52
2021/12/25 05:47:38;;;;;;;10.47;5.03;;;;;;;8.93;99.45;97414.81;5042906;28;20573;-57
2021/12/25 05:50:27;;;;;;;7.17;4.47;;;;;;;8.95;99.49;97421.44;5052483;28;20251;-55
2021/12/25 05:53:20;;;;;;;9.97;4.60;;;;;;;8.88;100.00;97419.72;5052095;28;20196;-56
2021/12/25 05:56:05;;;;;;;7.83;4.73;;;;;;;8.91;99.14;97419.38;5053107;28;20210;-54
2021/12/25 05:58:52;;;;;;;8.43;5.03;;;;;;;8.92;99.19;97428.81;5053213;28;20270;-56
2021/12/25 06:01:22;;;;;;;7.63;4.50;;;;;;;8.89;99.37;97424.72;5052651;28;20219;-59
2021/12/25 06:03:48;;;;;;;8.57;5.20;;;;;;;8.92;99.86;97424.41;5053017;28;20254;-57
2021/12/25 06:06:15;;;;;;;6.63;4.13;;;;;;;8.93;100.00;97435.63;5051621;28;20259;-55
2021/12/25 06:08:42;;;;;;;8.80;5.10;;;;;;;8.88;99.48;97440.53;5052971;28;20675;-59
2021/12/25 06:11:10;;;;;;;7.50;4.57;;;;;;;8.87;99.94;97444.91;5051179;28;20220;-59
2021/12/25 06:13:43;;;;;;;7.33;4.77;;;;;;;8.86;100.00;97445.88;5051621;28;20665;-59
2021/12/25 06:16:13;;;;;;;8.40;5.00;;;;;;;8.92;99.19;97452.22;5051453;28;20218;-59
2021/12/25 06:18:46;;;;;;;9.40;4.97;;;;;;;8.82;99.60;97450.63;5051448;28;20191;-56
2021/12/25 06:21:22;;;;;;;11.00;5.63;;;;;;;8.75;100.00;97454.88;5050756;28;20227;-58
2021/12/25 06:24:08;;;;;;;9.37;5.60;;;;;;;8.74;100.00;97455.88;5051413;28;20192;-59
2021/12/25 06:26:44;;;;;;;8.87;6.07;;;;;;;8.67;100.00;97460.91;5051340;28;20279;-58
2021/12/25 06:29:19;;;;;;;11.37;6.53;;;;;;;8.61;100.00;97458.97;5052528;28;20195;-59
2021/12/25 06:32:20;;;;;;;8.07;5.60;;;;;;;8.53;100.00;97448.59;5046124;28;20214;-58
2021/12/25 06:35:22;;;;;;;10.80;6.60;;;;;;;8.51;100.00;97464.38;5030199;28;20288;-59
2021/12/25 06:38:03;;;;;;;12.30;7.20;;;;;;;8.55;100.00;97459.63;5046845;28;20203;-58
2021/12/25 06:40:42;;;;;;;12.93;7.53;;;;;;;8.57;100.00;97460.28;5050553;28;20636;-59
2021/12/25 06:43:09;;;;;;;11.20;7.17;;;;;;;8.54;100.00;97468.41;5051042;28;20192;-58
2021/12/25 06:45:37;;;;;;;8.80;6.47;;;;;;;8.55;100.00;97470.03;5051096;28;20220;-58
2021/12/25 06:48:06;;;;;;;10.03;7.53;;;;;;;8.61;100.00;97469.38;5050922;28;20219;-59
2021/12/25 06:51:09;;;;;;;10.47;6.63;;;;;;;8.60;100.00;97472.16;5051417;28;20573;-59
2021/12/25 06:53:52;;;;;;;12.47;7.73;;;;;;;8.60;100.00;97466.97;5050930;28;20246;-59
2021/12/25 06:56:37;;;;;;;9.40;5.70;;;;;;;8.57;100.00;97468.91;5052053;28;20219;-59
2021/12/25 06:59:06;;;;;;;11.60;6.87;;;;;;;8.55;100.00;97464.84;5050707;28;20244;-57
2021/12/25 07:01:38;;;;;;;13.80;7.13;;;;;;;8.53;100.00;97461.59;5050316;28;20600;-57
2021/12/25 07:04:09;;;;;;;14.37;6.90;;;;;;;8.51;100.00;97466.97;5050777;28;20222;-58
2021/12/25 07:06:55;;;;;;;13.80;6.93;;;;;;;8.53;100.00;97469.41;5052005;28;20199;-57
2021/12/25 07:09:22;;;;;;;16.80;10.47;;;;;;;8.53;100.00;97467.63;5052424;28;20273;-59
2021/12/25 07:12:28;;;;;;;12.00;6.63;;;;;;;8.52;100.00;97478.19;5029602;28;20707;-59
2021/12/25 07:15:29;;;;;;;12.80;6.90;;;;;;;8.51;100.00;97474.78;5012978;28;20713;-59
2021/12/25 07:18:28;;;;;;;11.20;6.10;;;;;;;8.68;100.00;97483.34;5031530;28;20668;-58
2021/12/25 07:21:23;;;;;;;10.07;6.40;;;;;;;8.67;100.00;97471.31;5049864;28;20245;-58
2021/12/25 07:24:08;;;;;;;11.60;6.70;;;;;;;8.62;100.00;97493.63;5050568;28;20709;-57
2021/12/25 07:26:41;;;;;;;11.63;6.90;;;;;;;8.66;100.00;97474.09;5050540;28;20184;-54
2021/12/25 07:29:20;;;;;;;9.93;5.90;;;;;;;8.67;100.00;97483.53;5050593;28;20308;-55
2021/12/25 07:31:49;;;;;;;12.10;7.93;;;;;;;8.64;100.00;97481.25;5051415;28;20311;-57
2021/12/25 07:34:16;;;;;;;12.47;6.73;;;;;;;8.65;100.00;97488.88;5055959;28;20219;-57
2021/12/25 07:36:44;;;;;;;11.73;6.23;;;;;;;8.69;100.00;97489.38;5055816;28;20787;-57
2021/12/25 07:39:11;;;;;;;9.13;6.40;;;;;;;8.67;100.00;97489.53;5055821;28;20215;-57
2021/12/25 07:41:37;;;;;;;18.17;8.90;;;;;;;8.69;100.00;97491.97;5055157;28;20235;-57
2021/12/25 07:44:05;;;;;;;64.07;30.93;;;;;;;8.67;100.00;97492.13;5055672;28;20193;-59
2021/12/25 07:46:38;;;;;;;23.87;17.17;;;;;;;8.68;100.00;97498.16;5055713;28;20184;-57
2021/12/25 07:49:05;;;;;;;10.90;7.37;;;;;;;8.67;100.00;97491.31;5055792;28;20544;-57
2021/12/25 07:51:32;;;;;;;10.10;7.10;;;;;;;8.69;100.00;97503.19;5054891;28;20214;-55
2021/12/25 07:54:00;;;;;;;9.50;6.60;;;;;;;8.67;100.00;97501.72;5055501;28;20271;-56
2021/12/25 07:56:27;;;;;;;9.73;6.13;;;;;;;8.68;100.00;97501.56;5055398;28;20258;-57
2021/12/25 07:58:54;;;;;;;7.60;5.40;;;;;;;8.77;100.00;97504.13;5055276;28;20279;-55
2021/12/25 08:01:21;;;;;;;7.43;4.60;;;;;;;8.84;100.00;97498.13;5054853;28;20609;-60
2021/12/25 08:03:47;;;;;;;9.53;5.13;;;;;;;8.83;100.00;97499.09;5055348;28;20205;-56
2021/12/25 08:06:14;;;;;;;8.13;5.23;;;;;;;8.82;100.00;97499.25;5055229;28;20218;-56
2021/12/25 08:08:42;;;;;;;7.80;5.57;;;;;;;8.82;100.00;97505.28;5055248;28;20186;-56
2021/12/25 08:11:10;;;;;;;7.43;5.20;;;;;;;8.79;100.00;97499.56;5054293;28;20302;-57
2021/12/25 08:13:37;;;;;;;7.10;4.80;;;;;;;8.80;100.00;97506.41;5055003;28;20188;-58
2021/12/25 08:16:04;;;;;;;6.87;5.00;;;;;;;8.86;100.00;97508.34;5055056;28;20212;-56
2021/12/25 08:18:31;;;;;;;9.77;5.37;;;;;;;8.85;100.00;97511.91;5055172;28;20266;-53
2021/12/25 08:21:17;;;;;;;12.03;6.70;;;;;;;8.83;100.00;97514.72;5054373;28;20219;-58
2021/12/25 08:24:12;;;;;;;8.80;5.50;;;;;;;8.84;100.00;97512.91;5052745;28;20196;-58
2021/12/25 08:27:04;;;;;;;6.87;5.53;;;;;;;8.83;100.00;97511.28;5054897;28;20198;-58
2021/12/25 08:29:50;;;;;;;9.23;4.80;;;;;;;8.81;100.00;97516.66;5054254;28;20247;-59
2021/12/25 08:32:35;;;;;;;8.20;4.70;;;;;;;8.78;100.00;97510.97;5054893;28;20204;-58
2021/12/25 08:35:35;;;;;;;11.43;7.80;;;;;;;8.86;100.00;97511.78;5054480;28;20215;-59
2021/12/25 08:38:01;;;;;;;9.13;6.13;;;;;;;8.89;100.00;97509.81;5054736;28;20271;-57
2021/12/25 08:40:29;;;;;;;13.10;7.13;;;;;;;8.90;100.00;97506.22;5053876;28;20203;-58
2021/12/25 08:43:01;;;;;;;7.37;4.40;;;;;;;8.95;100.00;97509.16;5054702;28;20211;-55
2021/12/25 08:45:42;;;;;;;9.50;5.50;;;;;;;8.92;100.00;97517.28;5054712;28;20239;-57
2021/12/25 08:48:13;;;;;;;7.53;4.33;;;;;;;8.89;100.00;97518.41;5054599;28;20183;-59
2021/12/25 08:50:42;;;;;;;9.13;5.80;;;;;;;8.86;100.00;97519.56;5053789;28;20208;-59
2021/12/25 08:53:09;;;;;;;8.77;5.27;;;;;;;8.90;100.00;97521.84;5054387;28;20718;-58
2021/12/25 08:55:35;;;;;;;9.70;5.13;;;;;;;8.90;100.00;97514.84;5054267;28;20228;-59
2021/12/25 08:58:04;;;;;;;7.80;4.90;;;;;;;8.88;100.00;97521.19;5054234;28;20557;-56
2021/12/25 09:00:31;;;;;;;8.83;5.47;;;;;;;8.86;100.00;97511.78;5053884;28;20204;-59
2021/12/25 09:02:58;;;;;;;11.10;8.00;;;;;;;8.92;100.00;97515.47;5054294;28;20275;-57
2021/12/25 09:05:25;;;;;;;7.43;4.70;;;;;;;8.92;100.00;97523.28;5054087;28;20666;-59
2021/12/25 09:07:52;;;;;;;8.37;5.83;;;;;;;8.93;100.00;97517.09;5054358;28;20217;-59
2021/12/25 09:10:19;;;;;;;13.50;8.77;;;;;;;8.94;100.00;97521.34;5053565;28;20220;-56
2021/12/25 09:12:46;;;;;;;8.20;6.03;;;;;;;8.93;100.00;97527.50;5054142;28;20556;-59
2021/12/25 09:15:14;;;;;;;10.13;5.30;;;;;;;8.90;100.00;97527.84;5054078;28;20185;-59
2021/12/25 09:17:42;;;;;;;8.87;5.60;;;;;;;8.93;100.00;97537.13;5054088;28;20192;-59
2021/12/25 09:20:10;;;;;;;7.70;5.20;;;;;;;8.94;100.00;97530.94;5051958;28;20211;-60
2021/12/25 09:22:37;;;;;;;10.60;5.87;;;;;;;8.94;100.00;97536.16;5053989;28;20616;-59
2021/12/25 09:25:05;;;;;;;7.40;5.87;;;;;;;8.96;100.00;97535.00;5053947;28;20286;-58
2021/12/25 09:27:32;;;;;;;7.60;5.07;;;;;;;9.03;99.58;97545.53;5053966;28;20216;-58
2021/12/25 09:29:59;;;;;;;11.60;6.33;;;;;;;9.05;100.00;97548.78;5053098;28;20238;-58
2021/12/25 09:32:28;;;;;;;10.23;6.33;;;;;;;8.96;99.84;97539.41;5053750;28;20220;-59
2021/12/25 09:34:55;;;;;;;9.97;6.73;;;;;;;9.04;99.55;97554.97;5054057;28;20202;-57
2021/12/25 09:37:22;;;;;;;10.10;6.37;;;;;;;9.07;99.82;97543.41;5053703;28;20304;-58
2021/12/25 09:39:49;;;;;;;5.20;3.80;;;;;;;9.06;99.50;97545.19;5051680;28;20235;-57
2021/12/25 09:42:16;;;;;;;7.60;4.23;;;;;;;9.15;97.59;97556.41;5053308;28;20546;-57
2021/12/25 09:44:43;;;;;;;10.83;6.53;;;;;;;9.16;98.66;97555.44;5053937;28;20190;-55
2021/12/25 09:47:10;;;;;;;8.27;5.80;;;;;;;9.18;98.36;97556.06;5053276;28;20715;-57
2021/12/25 09:49:38;;;;;;;12.83;8.17;;;;;;;9.27;98.22;97552.47;5052832;28;20201;-59
2021/12/25 09:52:05;;;;;;;29.23;18.43;;;;;;;9.19;99.93;97554.25;5053089;28;20245;-57
2021/12/25 09:54:32;;;;;;;12.90;8.00;;;;;;;9.20;98.81;97567.13;5052718;28;20187;-56
2021/12/25 09:56:59;;;;;;;15.07;8.80;;;;;;;9.10;99.88;97556.09;5053106;28;20750;-55
2021/12/25 09:59:27;;;;;;;13.63;9.10;;;;;;;9.21;99.38;97554.91;5052134;28;20191;-56
2021/12/25 10:01:55;;;;;;;13.57;7.90;;;;;;;9.18;100.00;97557.84;5052750;28;20610;-58
2021/12/25 10:04:35;;;;;;;15.77;9.17;;;;;;;9.35;100.00;97550.81;5051733;28;20192;-58
2021/12/25 10:07:19;;;;;;;12.47;8.37;;;;;;;9.27;100.00;97547.25;5052989;28;20191;-57
2021/12/25 10:10:01;;;;;;;17.23;9.73;;;;;;;9.27;100.00;97549.03;5052421;28;20192;-58
2021/12/25 10:12:32;;;;;;;12.23;8.30;;;;;;;9.27;100.00;97547.25;5053075;28;20294;-58
2021/12/25 10:14:59;;;;;;;8.17;4.80;;;;;;;9.31;99.76;97547.72;5052860;28;20188;-58
2021/12/25 10:17:30;;;;;;;7.03;5.00;;;;;;;9.24;98.14;97542.38;5051538;28;20442;-56
2021/12/25 10:20:04;;;;;;;11.40;7.67;;;;;;;9.32;98.09;97546.72;5052211;28;20254;-57
2021/12/25 10:22:32;;;;;;;12.17;7.50;;;;;;;9.30;99.20;97546.91;5052689;28;20290;-58
2021/12/25 10:25:09;;;;;;;12.00;7.83;;;;;;;9.40;99.30;97551.09;5052761;28;20264;-58
2021/12/25 10:27:36;;;;;;;9.00;6.57;;;;;;;9.39;97.70;97550.28;5052579;28;20659;-58
2021/12/25 10:30:06;;;;;;;9.67;7.10;;;;;;;9.35;98.05;97548.19;5051856;28;20248;-57
2021/12/25 10:32:38;;;;;;;26.57;13.40;;;;;;;9.31;100.00;97547.72;5052466;28;20185;-57
2021/12/25 10:35:14;;;;;;;13.63;7.60;;;;;;;9.40;99.64;97551.09;5052441;28;20572;-57
2021/12/25 10:37:42;;;;;;;16.97;10.20;;;;;;;9.42;99.46;97536.13;5051203;28;20717;-56
2021/12/25 10:40:25;;;;;;;14.80;9.23;;;;;;;9.53;98.38;97546.16;5051980;28;20657;-58
2021/12/25 10:42:52;;;;;;;14.43;9.20;;;;;;;9.55;99.92;97536.34;5052427;28;20662;-56
2021/12/25 10:45:22;;;;;;;13.10;8.10;;;;;;;9.71;99.98;97537.25;5052376;28;20660;-58
2021/12/25 10:48:01;;;;;;;12.13;8.33;;;;;;;9.84;99.89;97534.88;5051143;28;20216;-58
2021/12/25 10:50:35;;;;;;;13.80;9.57;;;;;;;9.89;99.26;97527.38;5051761;28;20217;-57
2021/12/25 10:53:07;;;;;;;9.07;6.23;;;;;;;9.82;98.19;97528.25;5052221;28;20197;-54
2021/12/25 10:55:37;;;;;;;13.77;8.03;;;;;;;9.85;98.39;97526.09;5052157;28;20537;-57
2021/12/25 10:58:19;;;;;;;10.47;6.13;;;;;;;9.77;97.08;97525.34;5051871;28;20242;-57
2021/12/25 11:00:53;;;;;;;15.20;8.53;;;;;;;9.93;97.72;97519.19;5051270;28;20304;-57
2021/12/25 11:03:28;;;;;;;16.40;9.97;;;;;;;9.94;96.93;97520.81;5052119;28;20665;-58
2021/12/25 11:06:01;;;;;;;17.40;10.60;;;;;;;9.90;97.16;97509.94;5051839;28;20254;-58
2021/12/25 11:08:30;;;;;;;12.90;8.50;;;;;;;9.97;96.86;97505.66;5051445;28;20287;-57
2021/12/25 11:10:59;;;;;;;11.80;7.57;;;;;;;9.93;96.83;97516.59;5051167;28;20218;-58
2021/12/25 11:13:28;;;;;;;7.70;4.70;;;;;;;10.02;95.02;97518.16;5051908;28;20196;-57
2021/12/25 11:16:04;;;;;;;7.60;5.10;;;;;;;10.05;94.71;97512.59;5051783;28;20397;-57
2021/12/25 11:18:32;;;;;;;11.00;6.40;;;;;;;10.01;94.13;97509.53;5052134;28;20190;-58
2021/12/25 11:20:59;;;;;;;7.80;4.77;;;;;;;10.17;94.03;97508.59;5051132;28;20205;-56
2021/12/25 11:23:28;;;;;;;8.63;4.80;;;;;;;10.07;94.87;97508.00;5051566;28;20196;-57
2021/12/25 11:25:56;;;;;;;9.90;6.30;;;;;;;9.86;92.49;97503.47;5051945;28;20201;-56
2021/12/25 11:28:23;;;;;;;7.23;4.60;;;;;;;10.03;94.30;97496.31;5051726;28;20186;-58
2021/12/25 11:30:52;;;;;;;7.03;4.77;;;;;;;10.01;94.62;97503.50;5051039;28;20212;-57
2021/12/25 11:33:19;;;;;;;8.00;4.83;;;;;;;10.16;92.97;97496.53;5051681;28;20519;-58
2021/12/25 11:35:46;;;;;;;7.67;4.67;;;;;;;10.00;93.51;97499.28;5051491;28;20274;-56
2021/12/25 11:38:13;;;;;;;7.70;4.37;;;;;;;10.08;94.22;97496.59;5051684;28;20550;-57
2021/12/25 11:40:47;;;;;;;8.03;4.33;;;;;;;9.97;93.03;97497.84;5051090;28;20229;-58
2021/12/25 11:43:17;;;;;;;7.63;5.33;;;;;;;10.09;93.80;97492.19;5051590;28;20196;-57
2021/12/25 11:45:51;;;;;;;8.20;5.13;;;;;;;10.11;93.85;97490.22;5051507;28;20216;-57
2021/12/25 11:48:21;;;;;;;7.13;3.93;;;;;;;10.14;92.37;97489.84;5051399;28;20201;-57
2021/12/25 11:50:50;;;;;;;7.00;4.07;;;;;;;10.06;93.04;97487.34;5050817;28;20211;-58
2021/12/25 11:53:22;;;;;;;17.33;7.07;;;;;;;10.05;92.85;97489.13;5051592;28;20751;-57
2021/12/25 11:58:48;;;;;;;12.73;5.73;;;;;;;10.07;91.97;97492.38;5051775;28;20276;-58
2021/12/25 12:01:24;;;;;;;15.03;7.27;;;;;;;9.96;92.05;97493.59;5050930;28;20197;-56
2021/12/25 12:03:54;;;;;;;9.57;4.73;;;;;;;9.96;92.27;97491.00;5051414;28;20674;-58
2021/12/25 12:06:58;;;;;;;18.03;8.43;;;;;;;9.81;93.67;97490.13;5051479;28;20681;-58
2021/12/25 12:09:56;;;;;;;11.13;5.20;;;;;;;9.83;93.51;97488.97;5049617;28;20235;-57
2021/12/25 12:13:17;;;;;;;117.83;41.07;;;;;;;9.80;94.68;97493.72;5043090;28;20187;-56
2021/12/25 12:16:05;;;;;;;19.43;8.53;;;;;;;9.76;94.00;97498.47;5051417;28;20672;-56
2021/12/25 12:18:56;;;;;;;16.97;7.20;;;;;;;9.70;94.79;97491.34;5052106;28;20586;-55
2021/12/25 12:21:36;;;;;;;31.93;14.90;;;;;;;9.67;94.59;97500.31;5054342;28;20673;-55
2021/12/25 12:27:09;;;;;;;8.60;5.10;;;;;;;9.47;95.41;97499.13;5054654;28;20193;-55
2021/12/25 12:29:49;;;;;;;10.27;5.80;;;;;;;9.59;96.33;97503.78;5054285;28;20666;-56
2021/12/25 12:32:36;;;;;;;10.03;5.60;;;;;;;9.49;96.39;97502.38;5054754;28;20285;-57
2021/12/25 12:35:05;;;;;;;12.57;8.33;;;;;;;9.52;98.47;97499.44;5054921;28;20274;-55
2021/12/25 12:37:33;;;;;;;8.87;5.47;;;;;;;9.49;97.01;97495.38;5053374;28;20207;-56
2021/12/25 12:40:25;;;;;;;9.37;5.40;;;;;;;9.52;96.77;97486.41;5053886;28;20202;-57
2021/12/25 12:42:57;;;;;;;11.37;5.63;;;;;;;9.50;96.55;97488.38;5054496;28;20180;-58
2021/12/25 12:45:26;;;;;;;6.97;3.87;;;;;;;9.60;95.02;97489.75;5054647;28;20212;-55
2021/12/25 12:48:15;;;;;;;7.53;4.50;;;;;;;9.58;95.34;97491.72;5054477;28;20293;-58
2021/12/25 12:50:46;;;;;;;11.57;6.33;;;;;;;9.54;95.20;97495.66;5053816;28;20301;-54
2021/12/25 12:53:12;;;;;;;10.33;5.53;;;;;;;9.58;96.46;97496.94;5054394;28;20189;-58
2021/12/25 12:55:42;;;;;;;11.53;7.43;;;;;;;9.53;96.61;97496.66;5054324;28;20184;-53
2021/12/25 12:58:16;;;;;;;11.33;4.17;;;;;;;9.58;95.85;97501.34;5054220;28;20243;-55
2021/12/25 13:00:46;;;;;;;6.53;4.40;;;;;;;9.42;95.75;97505.66;5053652;28;20213;-57